createdAt,value
2023-02-22T00:00:22.451Z,51.46
2023-02-22T00:05:19.905Z,51.06
2023-02-22T00:10:19.814Z,51.28
2023-02-22T00:15:17.514Z,51.38
2023-02-22T00:20:18.867Z,51.28
2023-02-22T00:25:17.139Z,51.77
2023-02-22T00:30:18.510Z,52.12
2023-02-22T00:35:16.028Z,52.89
2023-02-22T00:40:15.489Z,53.29
2023-02-22T00:45:12.961Z,53.11
2023-02-22T00:50:11.213Z,53.32
2023-02-22T00:55:09.289Z,52.82
2023-02-22T01:00:11.360Z,52.90
2023-02-22T01:05:11.919Z,52.96
2023-02-22T01:10:10.982Z,52.91
2023-02-22T01:15:09.821Z,52.94
2023-02-22T01:20:12.353Z,52.21
2023-02-22T01:25:09.929Z,51.87
2023-02-22T01:30:08.268Z,52.33
2023-02-22T01:35:08.861Z,52.40
2023-02-22T01:40:06.931Z,53.62
2023-02-22T01:45:22.244Z,53.06
2023-02-22T01:50:21.451Z,53.06
2023-02-22T01:55:18.364Z,52.62
2023-02-22T02:00:20.829Z,52.25
2023-02-22T02:05:17.783Z,52.06
2023-02-22T02:10:15.848Z,52.55
2023-02-22T02:15:21.412Z,52.64
2023-02-22T02:20:20.998Z,52.42
2023-02-22T02:25:31.423Z,51.94
2023-02-22T02:30:48.792Z,51.53
2023-02-22T02:35:53.814Z,51.27
2023-02-22T02:40:55.613Z,51.15
2023-02-22T02:45:56.632Z,50.81
2023-02-22T02:50:56.575Z,50.90
2023-02-22T02:55:53.244Z,51.21
2023-02-22T03:00:52.739Z,50.68
2023-02-22T03:06:04.226Z,51.07
2023-02-22T03:11:06.613Z,51.12
2023-02-22T03:16:12.112Z,50.92
2023-02-22T03:21:13.834Z,51.74
2023-02-22T03:26:14.441Z,51.57
2023-02-22T03:31:14.294Z,51.46
2023-02-22T03:36:14.716Z,52.06
2023-02-22T03:41:15.136Z,52.56
2023-02-22T03:46:14.468Z,53.29
2023-02-22T03:51:16.717Z,52.97
2023-02-22T03:56:21.929Z,52.61
2023-02-22T04:01:19.410Z,53.63
2023-02-22T04:06:16.819Z,53.25
2023-02-22T04:11:15.623Z,53.22
2023-02-22T04:16:17.780Z,53.94
2023-02-22T04:21:14.818Z,54.09
2023-02-22T04:26:16.511Z,53.94
2023-02-22T04:31:18.801Z,54.40
2023-02-22T04:36:16.320Z,54.25
2023-02-22T04:41:15.065Z,54.20
2023-02-22T04:46:12.153Z,54.06
2023-02-22T04:51:10.468Z,54.56
2023-02-22T04:56:11.903Z,54.82
2023-02-22T05:01:08.624Z,54.35
2023-02-22T05:06:06.935Z,54.94
2023-02-22T05:11:04.595Z,54.48
2023-02-22T05:16:01.930Z,53.71
2023-02-22T05:20:58.665Z,53.91
2023-02-22T05:25:55.565Z,54.56
2023-02-22T05:30:53.152Z,54.83
2023-02-22T05:35:49.995Z,55.65
2023-02-22T05:40:46.680Z,55.35
2023-02-22T05:45:43.393Z,54.90
2023-02-22T05:50:44.115Z,54.69
2023-02-22T05:55:40.816Z,54.48
2023-02-22T06:00:37.677Z,54.00
2023-02-22T06:05:34.720Z,54.23
2023-02-22T06:10:32.603Z,54.71
2023-02-22T06:15:49.316Z,54.77
2023-02-22T06:20:48.392Z,54.80
2023-02-22T06:25:45.773Z,54.74
2023-02-22T06:30:43.112Z,54.89
2023-02-22T06:35:43.340Z,54.80
2023-02-22T06:40:40.429Z,55.16
2023-02-22T06:45:38.293Z,54.48
2023-02-22T06:50:36.087Z,54.87
2023-02-22T06:55:35.755Z,55.32
2023-02-22T07:00:33.340Z,55.07
2023-02-22T07:05:33.791Z,55.17
2023-02-22T07:10:31.574Z,56.30
2023-02-22T07:15:29.431Z,57.48
2023-02-22T07:20:27.174Z,57.86
2023-02-22T07:25:24.838Z,58.11
2023-02-22T07:30:28.091Z,57.95
2023-02-22T07:35:27.055Z,58.01
2023-02-22T07:40:25.326Z,58.47
2023-02-22T07:45:23.172Z,58.10
2023-02-22T07:50:20.783Z,58.08
2023-02-22T07:55:19.001Z,57.79
2023-02-22T08:00:21.463Z,58.00
2023-02-22T08:05:19.100Z,57.20
2023-02-22T08:10:16.543Z,58.08
2023-02-22T08:15:18.290Z,57.63
2023-02-22T08:20:16.006Z,56.95
2023-02-22T08:25:16.487Z,55.75
2023-02-22T08:30:14.795Z,55.04
2023-02-22T08:35:13.201Z,54.31
2023-02-22T08:40:13.928Z,54.47
2023-02-22T08:45:12.790Z,53.77
2023-02-22T08:50:15.053Z,53.55
2023-02-22T08:55:12.463Z,52.84
2023-02-22T09:00:09.829Z,52.25
2023-02-22T09:05:07.009Z,52.67
2023-02-22T09:10:04.051Z,52.35
2023-02-22T09:15:02.570Z,52.03
2023-02-22T09:19:59.937Z,51.87
2023-02-22T09:24:58.495Z,51.46
2023-02-22T09:29:56.075Z,50.36
2023-02-22T09:34:55.393Z,50.65
2023-02-22T09:39:52.233Z,50.28
2023-02-22T09:44:53.112Z,49.81
2023-02-22T09:49:58.566Z,49.74
2023-02-22T09:55:04.559Z,48.59
2023-02-22T10:00:13.498Z,48.63
2023-02-22T10:05:18.388Z,48.47
2023-02-22T10:10:19.638Z,48.36
2023-02-22T10:15:34.160Z,47.95
2023-02-22T10:20:39.186Z,48.03
2023-02-22T10:25:38.115Z,47.26
2023-02-22T10:30:38.549Z,47.98
2023-02-22T10:35:40.567Z,48.04
2023-02-22T10:40:40.165Z,48.03
2023-02-22T10:45:37.368Z,47.36
2023-02-22T10:50:35.647Z,47.46
2023-02-22T10:55:33.436Z,46.81
2023-02-22T11:00:31.911Z,46.99
2023-02-22T11:05:36.516Z,46.68
2023-02-22T11:10:38.971Z,46.56
2023-02-22T11:15:36.168Z,46.27
2023-02-22T11:20:38.228Z,46.21
2023-02-22T11:25:37.909Z,46.10
2023-02-22T11:30:36.778Z,45.74
2023-02-22T11:35:36.435Z,45.43
2023-02-22T11:40:34.893Z,45.22
2023-02-22T11:45:32.774Z,44.83
2023-02-22T11:50:31.443Z,44.63
2023-02-22T11:55:42.376Z,43.47
2023-02-22T12:00:45.985Z,43.34
2023-02-22T12:05:59.667Z,43.66
2023-02-22T12:11:05.811Z,43.36
2023-02-22T12:16:08.340Z,45.17
2023-02-22T12:21:09.420Z,44.43
2023-02-22T12:26:11.777Z,44.64
2023-02-22T12:31:16.379Z,44.59
2023-02-22T12:36:18.638Z,43.90
2023-02-22T12:41:18.923Z,44.09
2023-02-22T12:46:19.356Z,42.93
2023-02-22T12:51:24.666Z,43.54
2023-02-22T12:56:26.191Z,43.92
2023-02-22T13:01:29.495Z,44.50
2023-02-22T13:06:34.434Z,44.43
2023-02-22T13:11:35.391Z,44.58
2023-02-22T13:16:41.057Z,44.22
2023-02-22T13:21:41.974Z,43.81
2023-02-22T13:26:42.773Z,43.93
2023-02-22T13:31:49.288Z,44.00
2023-02-22T13:36:58.047Z,43.57
2023-02-22T13:42:15.294Z,42.82
2023-02-22T13:47:39.109Z,43.60
2023-02-22T13:52:39.056Z,43.02
2023-02-22T13:57:39.059Z,43.39
2023-02-22T14:02:55.653Z,44.15
2023-02-22T14:07:57.744Z,44.49
2023-02-22T14:13:06.017Z,44.66
2023-02-22T14:18:09.531Z,44.29
2023-02-22T14:23:28.517Z,44.97
2023-02-22T14:28:38.366Z,45.19
2023-02-22T14:34:02.777Z,45.48
2023-02-22T14:39:03.684Z,45.58
2023-02-22T14:44:12.376Z,46.26
2023-02-22T14:49:17.977Z,46.64
2023-02-22T14:54:26.400Z,46.65
2023-02-22T14:59:26.467Z,46.83
2023-02-22T15:04:27.262Z,47.06
2023-02-22T15:09:28.917Z,46.70
2023-02-22T15:14:27.060Z,46.35
2023-02-22T15:19:26.695Z,46.18
2023-02-22T15:24:26.517Z,46.57
2023-02-22T15:29:24.309Z,46.88
2023-02-22T15:34:26.192Z,47.00
2023-02-22T15:39:26.547Z,46.38
2023-02-22T15:44:24.368Z,46.52
2023-02-22T15:49:23.124Z,46.41
2023-02-22T15:54:27.125Z,47.38
2023-02-22T15:59:33.169Z,47.64
2023-02-22T16:04:31.330Z,47.63
2023-02-22T16:09:29.822Z,47.35
2023-02-22T16:14:31.311Z,47.99
2023-02-22T16:19:33.046Z,49.09
2023-02-22T16:24:30.530Z,49.57
2023-02-22T16:29:27.259Z,50.24
2023-02-22T16:34:24.104Z,49.68
2023-02-22T16:39:23.474Z,49.26
2023-02-22T16:44:20.458Z,49.08
2023-02-22T16:49:16.990Z,49.67
2023-02-22T16:54:14.752Z,49.72
2023-02-22T16:59:13.987Z,50.07
2023-02-22T17:04:15.682Z,50.82
2023-02-22T17:09:15.313Z,50.68
2023-02-22T17:14:16.642Z,49.76
2023-02-22T17:19:18.513Z,50.23
2023-02-22T17:24:21.928Z,50.31
2023-02-22T17:29:20.002Z,50.20
2023-02-22T17:34:17.375Z,49.84
2023-02-22T17:39:14.251Z,51.17
2023-02-22T17:44:11.306Z,51.28
2023-02-22T17:49:08.844Z,50.92
2023-02-22T17:54:05.685Z,50.51
2023-02-22T17:59:02.423Z,49.91
2023-02-22T18:03:59.943Z,49.58
2023-02-22T18:08:58.351Z,49.43
2023-02-22T18:13:55.549Z,50.53
2023-02-22T18:18:52.389Z,50.86
2023-02-22T18:23:49.203Z,51.46
2023-02-22T18:28:48.039Z,51.16
2023-02-22T18:33:46.084Z,51.57
2023-02-22T18:38:44.539Z,51.03
2023-02-22T18:43:41.644Z,52.07
2023-02-22T18:48:39.326Z,52.38
2023-02-22T18:53:36.554Z,52.05
2023-02-22T18:58:33.179Z,51.29
2023-02-22T19:03:29.848Z,51.26
2023-02-22T19:08:28.057Z,51.89
2023-02-22T19:13:24.680Z,51.52
2023-02-22T19:18:23.120Z,51.41
2023-02-22T19:23:19.767Z,51.10
2023-02-22T19:28:17.378Z,50.74
2023-02-22T19:33:14.056Z,51.11
2023-02-22T19:38:10.772Z,50.19
2023-02-22T19:43:07.416Z,49.67
2023-02-22T19:48:04.848Z,49.42
2023-02-22T19:53:01.881Z,49.09
2023-02-22T19:57:58.677Z,48.89
2023-02-22T20:03:04.933Z,49.16
2023-02-22T20:08:02.221Z,49.74
2023-02-22T20:13:00.647Z,50.75
2023-02-22T20:17:58.962Z,51.90
2023-02-22T20:22:55.686Z,52.49
2023-02-22T20:27:55.080Z,52.22
2023-02-22T20:32:52.604Z,52.06
2023-02-22T20:37:51.888Z,52.37
2023-02-22T20:42:48.645Z,51.48
2023-02-22T20:47:45.923Z,52.26
2023-02-22T20:52:42.677Z,52.32
2023-02-22T20:57:39.408Z,52.74
2023-02-22T21:02:40.681Z,52.98
2023-02-22T21:07:38.069Z,53.03
2023-02-22T21:12:35.109Z,53.26
2023-02-22T21:17:31.700Z,52.35
2023-02-22T21:22:38.245Z,52.73
2023-02-22T21:27:35.653Z,52.21
2023-02-22T21:32:32.581Z,51.90
2023-02-22T21:37:29.714Z,51.80
2023-02-22T21:42:29.172Z,51.78
2023-02-22T21:47:35.241Z,53.30
2023-02-22T21:52:32.117Z,54.20
2023-02-22T21:57:29.220Z,53.85
2023-02-22T22:02:31.792Z,52.66
2023-02-22T22:07:31.829Z,51.88
2023-02-22T22:12:38.736Z,51.00
2023-02-22T22:17:36.723Z,51.17
2023-02-22T22:22:41.122Z,50.97
2023-02-22T22:27:37.966Z,52.67
2023-02-22T22:32:34.803Z,53.66
2023-02-22T22:37:34.140Z,53.52
2023-02-22T22:42:30.899Z,53.15
2023-02-22T22:47:28.879Z,54.15
2023-02-22T22:52:30.866Z,55.27
2023-02-22T22:57:30.342Z,56.54
2023-02-22T23:02:26.958Z,56.69
2023-02-22T23:07:23.812Z,56.88
2023-02-22T23:12:26.647Z,55.87
2023-02-22T23:17:30.749Z,55.82
2023-02-22T23:22:27.700Z,55.36
2023-02-22T23:27:24.614Z,54.64
2023-02-22T23:32:21.764Z,53.66
2023-02-22T23:37:20.744Z,54.16
2023-02-22T23:42:17.641Z,54.12
2023-02-22T23:47:15.439Z,53.85
2023-02-22T23:52:13.551Z,53.02
2023-02-22T23:57:10.898Z,52.63
